createdAt,value
2023-04-24T00:00:11.093Z,994.72
2023-04-24T00:01:11.087Z,994.71
2023-04-24T00:02:11.233Z,994.73
2023-04-24T00:03:11.331Z,994.70
2023-04-24T00:04:11.303Z,994.74
2023-04-24T00:05:11.073Z,994.75
2023-04-24T00:06:11.057Z,994.72
2023-04-24T00:07:11.071Z,994.73
2023-04-24T00:08:11.052Z,994.74
2023-04-24T00:09:11.042Z,994.76
2023-04-24T00:10:11.052Z,994.77
2023-04-24T00:11:11.046Z,994.75
2023-04-24T00:12:11.018Z,994.76
2023-04-24T00:13:11.038Z,994.73
2023-04-24T00:14:11.010Z,994.76
2023-04-24T00:15:11.005Z,994.71
2023-04-24T00:16:11.077Z,994.77
2023-04-24T00:17:10.996Z,994.72
2023-04-24T00:18:10.995Z,994.78
2023-04-24T00:19:10.986Z,994.75
2023-04-24T00:20:10.978Z,994.70
2023-04-24T00:21:10.977Z,994.69
2023-04-24T00:22:10.959Z,994.68
2023-04-24T00:23:10.969Z,994.70
2023-04-24T00:24:10.956Z,994.70
2023-04-24T00:25:10.967Z,994.65
2023-04-24T00:26:10.944Z,994.63
2023-04-24T00:27:10.935Z,994.64
2023-04-24T00:28:10.936Z,994.65
2023-04-24T00:29:10.922Z,994.65
2023-04-24T00:30:10.924Z,994.62
2023-04-24T00:31:10.922Z,994.64
2023-04-24T00:32:10.961Z,994.64
2023-04-24T00:33:10.930Z,994.59
2023-04-24T00:34:10.908Z,994.60
2023-04-24T00:35:10.900Z,994.64
2023-04-24T00:36:10.889Z,994.62
2023-04-24T00:37:10.880Z,994.62
2023-04-24T00:38:10.881Z,994.58
2023-04-24T00:39:10.880Z,994.59
2023-04-24T00:40:10.879Z,994.55
2023-04-24T00:41:10.859Z,994.54
2023-04-24T00:42:10.848Z,994.56
2023-04-24T00:43:10.843Z,994.59
2023-04-24T00:44:10.831Z,994.53
2023-04-24T00:45:10.835Z,994.60
2023-04-24T00:46:10.829Z,994.59
2023-04-24T00:47:10.817Z,994.56
2023-04-24T00:48:10.879Z,994.55
2023-04-24T00:49:10.813Z,994.55
2023-04-24T00:50:10.814Z,994.53
2023-04-24T00:51:10.802Z,994.53
2023-04-24T00:52:10.793Z,994.48
2023-04-24T00:53:10.814Z,994.49
2023-04-24T00:54:10.785Z,994.47
2023-04-24T00:55:10.777Z,994.50
2023-04-24T00:56:10.767Z,994.46
2023-04-24T00:57:10.800Z,994.44
2023-04-24T00:58:10.814Z,994.42
2023-04-24T00:59:10.752Z,994.43
2023-04-24T01:00:10.769Z,994.41
2023-04-24T01:01:10.780Z,994.41
2023-04-24T01:02:10.772Z,994.44
2023-04-24T01:03:10.829Z,994.39
2023-04-24T01:04:10.782Z,994.39
2023-04-24T01:05:10.720Z,994.39
2023-04-24T01:06:10.708Z,994.38
2023-04-24T01:07:10.710Z,994.35
2023-04-24T01:08:10.698Z,994.36
2023-04-24T01:09:10.692Z,994.30
2023-04-24T01:10:10.688Z,994.33
2023-04-24T01:11:10.704Z,994.39
2023-04-24T01:12:10.681Z,994.34
2023-04-24T01:13:10.671Z,994.33
2023-04-24T01:14:10.671Z,994.33
2023-04-24T01:15:10.662Z,994.39
2023-04-24T01:16:10.726Z,994.40
2023-04-24T01:17:10.645Z,994.40
2023-04-24T01:18:10.645Z,994.43
2023-04-24T01:19:10.636Z,994.43
2023-04-24T01:20:10.633Z,994.48
2023-04-24T01:21:10.624Z,994.48
2023-04-24T01:22:10.621Z,994.47
2023-04-24T01:23:10.619Z,994.52
2023-04-24T01:24:10.601Z,994.52
2023-04-24T01:25:10.611Z,994.57
2023-04-24T01:26:10.599Z,994.63
2023-04-24T01:27:10.590Z,994.67
2023-04-24T01:28:10.585Z,994.66
2023-04-24T01:29:10.578Z,994.70
2023-04-24T01:30:10.585Z,994.73
2023-04-24T01:31:10.599Z,994.82
2023-04-24T01:32:10.572Z,994.84
2023-04-24T01:33:10.552Z,994.86
2023-04-24T01:34:10.560Z,994.91
2023-04-24T01:35:10.574Z,994.87
2023-04-24T01:36:10.540Z,994.89
2023-04-24T01:37:10.538Z,994.93
2023-04-24T01:38:10.526Z,994.96
2023-04-24T01:39:10.522Z,995.00
2023-04-24T01:40:10.512Z,995.01
2023-04-24T01:41:10.510Z,995.01
2023-04-24T01:42:10.495Z,994.90
2023-04-24T01:43:10.500Z,994.87
2023-04-24T01:44:10.491Z,994.86
2023-04-24T01:45:10.484Z,994.86
2023-04-24T01:46:10.521Z,994.89
2023-04-24T01:47:10.479Z,994.92
2023-04-24T01:48:10.467Z,994.88
2023-04-24T01:49:10.464Z,994.88
2023-04-24T01:50:10.461Z,994.91
2023-04-24T01:51:10.457Z,994.88
2023-04-24T01:52:10.448Z,994.83
2023-04-24T01:53:10.443Z,994.84
2023-04-24T01:54:10.446Z,994.85
2023-04-24T01:55:10.429Z,994.86
2023-04-24T01:56:10.419Z,994.83
2023-04-24T01:57:10.448Z,994.93
2023-04-24T01:58:10.410Z,994.89
2023-04-24T01:59:10.406Z,994.92
2023-04-24T02:00:10.402Z,994.91
2023-04-24T02:01:10.458Z,994.86
2023-04-24T02:02:10.467Z,994.89
2023-04-24T02:03:10.454Z,994.86
2023-04-24T02:04:10.478Z,994.86
2023-04-24T02:05:10.366Z,994.84
2023-04-24T02:06:10.357Z,994.85
2023-04-24T02:07:10.361Z,994.91
2023-04-24T02:08:10.353Z,994.88
2023-04-24T02:09:10.342Z,994.86
2023-04-24T02:10:10.341Z,994.83
2023-04-24T02:11:10.336Z,994.88
2023-04-24T02:12:10.339Z,994.89
2023-04-24T02:13:10.316Z,994.83
2023-04-24T02:14:10.310Z,994.84
2023-04-24T02:15:10.305Z,994.85
2023-04-24T02:16:11.385Z,994.90
2023-04-24T02:17:10.297Z,994.97
2023-04-24T02:18:10.283Z,995.03
2023-04-24T02:19:10.275Z,995.01
2023-04-24T02:20:10.284Z,995.02
2023-04-24T02:21:10.269Z,995.00
2023-04-24T02:22:10.276Z,995.03
2023-04-24T02:23:10.259Z,995.02
2023-04-24T02:24:10.255Z,994.99
2023-04-24T02:25:10.238Z,995.07
2023-04-24T02:26:10.233Z,995.08
2023-04-24T02:27:10.237Z,995.10
2023-04-24T02:28:10.223Z,995.12
2023-04-24T02:29:10.227Z,995.15
2023-04-24T02:30:10.209Z,995.21
2023-04-24T02:31:10.204Z,995.16
2023-04-24T02:32:10.240Z,995.16
2023-04-24T02:33:10.193Z,995.17
2023-04-24T02:34:10.180Z,995.23
2023-04-24T02:35:10.235Z,995.21
2023-04-24T02:36:10.165Z,995.27
2023-04-24T02:37:10.179Z,995.25
2023-04-24T02:38:10.176Z,995.34
2023-04-24T02:39:10.154Z,995.26
2023-04-24T02:40:10.140Z,995.31
2023-04-24T02:41:10.144Z,995.27
2023-04-24T02:42:10.132Z,995.35
2023-04-24T02:43:10.125Z,995.33
2023-04-24T02:44:10.116Z,995.32
2023-04-24T02:45:10.116Z,995.33
2023-04-24T02:46:10.217Z,995.43
2023-04-24T02:47:10.099Z,995.35
2023-04-24T02:48:10.096Z,995.41
2023-04-24T02:49:10.090Z,995.38
2023-04-24T02:50:10.078Z,995.44
2023-04-24T02:51:10.077Z,995.40
2023-04-24T02:52:10.065Z,995.40
2023-04-24T02:53:10.066Z,995.41
2023-04-24T02:54:10.056Z,995.47
2023-04-24T02:55:10.056Z,995.49
2023-04-24T02:56:10.039Z,995.47
2023-04-24T02:57:10.036Z,995.48
2023-04-24T02:58:10.024Z,995.44
2023-04-24T02:59:10.042Z,995.46
2023-04-24T03:00:10.010Z,995.49
2023-04-24T03:01:10.030Z,995.60
2023-04-24T03:02:10.013Z,995.56
2023-04-24T03:03:10.088Z,995.56
2023-04-24T03:04:10.116Z,995.52
2023-04-24T03:05:09.994Z,995.58
2023-04-24T03:06:09.969Z,995.55
2023-04-24T03:07:09.966Z,995.61
2023-04-24T03:08:09.988Z,995.59
2023-04-24T03:09:09.951Z,995.72
2023-04-24T03:10:09.945Z,995.73
2023-04-24T03:11:09.944Z,995.72
2023-04-24T03:12:09.934Z,995.79
2023-04-24T03:13:09.923Z,995.77
2023-04-24T03:14:09.924Z,995.77
2023-04-24T03:15:09.923Z,995.80
2023-04-24T03:16:09.985Z,995.79
2023-04-24T03:17:09.901Z,995.82
2023-04-24T03:18:09.917Z,995.87
2023-04-24T03:19:09.910Z,995.79
2023-04-24T03:20:09.877Z,995.85
2023-04-24T03:21:09.868Z,995.87
2023-04-24T03:22:09.861Z,995.83
2023-04-24T03:23:09.858Z,995.83
2023-04-24T03:24:09.859Z,995.84
2023-04-24T03:25:09.852Z,995.82
2023-04-24T03:26:09.844Z,995.79
2023-04-24T03:27:09.838Z,995.80
2023-04-24T03:28:09.824Z,995.82
2023-04-24T03:29:09.820Z,995.80
2023-04-24T03:30:09.818Z,995.83
2023-04-24T03:31:09.868Z,995.85
2023-04-24T03:32:09.834Z,995.80
2023-04-24T03:33:09.796Z,995.75
2023-04-24T03:34:09.788Z,995.70
2023-04-24T03:35:09.780Z,995.73
2023-04-24T03:36:09.772Z,995.67
2023-04-24T03:37:09.770Z,995.69
2023-04-24T03:38:09.774Z,995.62
2023-04-24T03:39:09.760Z,995.66
2023-04-24T03:40:09.761Z,995.69
2023-04-24T03:41:09.735Z,995.69
2023-04-24T03:42:09.740Z,995.67
2023-04-24T03:43:09.727Z,995.71
2023-04-24T03:44:09.720Z,995.68
2023-04-24T03:45:09.709Z,995.70
2023-04-24T03:46:09.722Z,995.78
2023-04-24T03:47:09.696Z,995.77
2023-04-24T03:48:09.699Z,995.81
2023-04-24T03:49:09.709Z,995.76
2023-04-24T03:50:11.762Z,995.81
2023-04-24T03:51:09.670Z,995.79
2023-04-24T03:52:09.673Z,995.72
2023-04-24T03:53:09.656Z,995.76
2023-04-24T03:54:09.649Z,995.78
2023-04-24T03:55:09.642Z,995.79
2023-04-24T03:56:10.555Z,995.76
2023-04-24T03:57:09.631Z,995.73
2023-04-24T03:58:09.624Z,995.65
2023-04-24T03:59:09.632Z,995.66
2023-04-24T04:00:09.613Z,995.68
2023-04-24T04:01:09.603Z,995.67
2023-04-24T04:02:09.666Z,995.70
2023-04-24T04:03:09.749Z,995.71
2023-04-24T04:04:09.770Z,995.63
2023-04-24T04:05:09.668Z,995.66
2023-04-24T04:06:09.563Z,995.65
2023-04-24T04:07:09.571Z,995.66
2023-04-24T04:08:09.555Z,995.71
2023-04-24T04:09:09.532Z,995.69
2023-04-24T04:10:09.534Z,995.67
2023-04-24T04:11:09.539Z,995.73
2023-04-24T04:12:09.525Z,995.70
2023-04-24T04:13:09.509Z,995.74
2023-04-24T04:14:09.512Z,995.78
2023-04-24T04:15:09.500Z,995.80
2023-04-24T04:16:09.513Z,995.81
2023-04-24T04:17:09.490Z,995.82
2023-04-24T04:18:09.558Z,995.82
2023-04-24T04:19:09.487Z,995.79
2023-04-24T04:20:09.460Z,995.77
2023-04-24T04:21:09.457Z,995.79
2023-04-24T04:22:09.453Z,995.78
2023-04-24T04:23:09.443Z,995.76
2023-04-24T04:24:09.427Z,995.74
2023-04-24T04:25:09.415Z,995.74
2023-04-24T04:26:09.421Z,995.77
2023-04-24T04:27:09.429Z,995.75
2023-04-24T04:28:09.406Z,995.74
2023-04-24T04:29:09.439Z,995.71
2023-04-24T04:30:09.392Z,995.73
2023-04-24T04:31:09.384Z,995.77
2023-04-24T04:32:09.409Z,995.76
2023-04-24T04:33:09.465Z,995.77
2023-04-24T04:34:09.355Z,995.79
2023-04-24T04:35:09.361Z,995.80
2023-04-24T04:36:09.349Z,995.82
2023-04-24T04:37:09.343Z,995.80
2023-04-24T04:38:09.348Z,995.88
2023-04-24T04:39:09.338Z,995.89
2023-04-24T04:40:09.326Z,995.91
2023-04-24T04:41:09.321Z,995.92
2023-04-24T04:42:09.303Z,995.94
2023-04-24T04:43:09.296Z,995.92
2023-04-24T04:44:09.295Z,995.93
2023-04-24T04:45:09.284Z,995.95
2023-04-24T04:46:09.332Z,995.95
2023-04-24T04:47:09.266Z,995.97
2023-04-24T04:48:09.270Z,995.91
2023-04-24T04:49:09.259Z,995.92
2023-04-24T04:50:09.247Z,995.94
2023-04-24T04:51:09.265Z,995.94
2023-04-24T04:52:09.234Z,995.95
2023-04-24T04:53:09.232Z,996.03
2023-04-24T04:54:09.227Z,995.99
2023-04-24T04:55:09.206Z,996.07
2023-04-24T04:56:09.213Z,996.05
2023-04-24T04:57:09.203Z,996.07
2023-04-24T04:58:09.200Z,996.04
2023-04-24T04:59:09.187Z,996.10
2023-04-24T05:00:09.173Z,996.11
2023-04-24T05:01:09.237Z,996.08
2023-04-24T05:02:09.250Z,996.09
2023-04-24T05:03:19.107Z,996.12
2023-04-24T05:04:09.308Z,996.12
2023-04-24T05:05:09.230Z,996.14
2023-04-24T05:06:09.167Z,996.15
2023-04-24T05:07:09.136Z,996.14
2023-04-24T05:08:16.494Z,996.14
2023-04-24T05:09:09.126Z,996.18
2023-04-24T05:10:09.107Z,996.17
2023-04-24T05:11:09.107Z,996.16
2023-04-24T05:12:09.100Z,996.11
2023-04-24T05:13:09.092Z,996.15
2023-04-24T05:14:09.089Z,996.15
2023-04-24T05:15:09.072Z,996.15
2023-04-24T05:16:09.066Z,996.13
2023-04-24T05:17:09.153Z,996.14
2023-04-24T05:18:09.106Z,996.13
2023-04-24T05:19:09.051Z,996.12
2023-04-24T05:20:09.036Z,996.08
2023-04-24T05:21:09.033Z,996.05
2023-04-24T05:22:09.026Z,996.08
2023-04-24T05:23:09.027Z,996.13
2023-04-24T05:24:09.010Z,996.05
2023-04-24T05:25:09.017Z,996.14
2023-04-24T05:26:09.002Z,996.14
2023-04-24T05:27:09.014Z,996.17
2023-04-24T05:28:08.980Z,996.17
2023-04-24T05:29:08.978Z,996.22
2023-04-24T05:30:08.971Z,996.22
2023-04-24T05:31:08.997Z,996.26
2023-04-24T05:32:08.951Z,996.29
2023-04-24T05:33:09.076Z,996.19
2023-04-24T05:34:08.940Z,996.22
2023-04-24T05:35:08.939Z,996.27
2023-04-24T05:36:08.924Z,996.34
2023-04-24T05:37:08.917Z,996.30
2023-04-24T05:38:08.918Z,996.38
2023-04-24T05:39:08.905Z,996.35
2023-04-24T05:40:08.893Z,996.34
2023-04-24T05:41:08.886Z,996.33
2023-04-24T05:42:08.885Z,996.34
2023-04-24T05:43:08.876Z,996.38
2023-04-24T05:44:08.862Z,996.44
2023-04-24T05:45:08.856Z,996.40
2023-04-24T05:46:08.896Z,996.48
2023-04-24T05:47:08.849Z,996.46
2023-04-24T05:48:08.861Z,996.48
2023-04-24T05:49:08.829Z,996.50
2023-04-24T05:50:08.828Z,996.46
2023-04-24T05:51:08.813Z,996.41
2023-04-24T05:52:08.807Z,996.45
2023-04-24T05:53:08.827Z,996.46
2023-04-24T05:54:08.794Z,996.39
2023-04-24T05:55:08.796Z,996.43
2023-04-24T05:56:08.783Z,996.44
2023-04-24T05:57:08.787Z,996.45
2023-04-24T05:58:08.764Z,996.43
2023-04-24T05:59:08.759Z,996.43
2023-04-24T06:00:08.760Z,996.40
2023-04-24T06:01:08.762Z,996.41
2023-04-24T06:02:08.849Z,996.45
2023-04-24T06:03:08.851Z,996.41
2023-04-24T06:04:08.918Z,996.39
2023-04-24T06:05:08.750Z,996.40
2023-04-24T06:06:08.707Z,996.37
2023-04-24T06:07:08.705Z,996.37
2023-04-24T06:08:08.693Z,996.37
2023-04-24T06:09:08.685Z,996.42
2023-04-24T06:10:08.694Z,996.37
2023-04-24T06:11:08.673Z,996.40
2023-04-24T06:12:08.658Z,996.34
2023-04-24T06:13:08.664Z,996.36
2023-04-24T06:14:08.651Z,996.33
2023-04-24T06:15:08.643Z,996.35
2023-04-24T06:16:08.655Z,996.42
2023-04-24T06:17:08.637Z,996.45
2023-04-24T06:18:08.620Z,996.50
2023-04-24T06:19:08.609Z,996.49
2023-04-24T06:20:08.606Z,996.49
2023-04-24T06:21:08.599Z,996.53
2023-04-24T06:22:10.453Z,996.54
2023-04-24T06:23:08.595Z,996.48
2023-04-24T06:24:08.612Z,996.53
2023-04-24T06:25:08.574Z,996.49
2023-04-24T06:26:08.566Z,996.54
2023-04-24T06:27:08.561Z,996.51
2023-04-24T06:28:08.548Z,996.54
2023-04-24T06:29:08.538Z,996.58
2023-04-24T06:30:08.539Z,996.56
2023-04-24T06:31:08.535Z,996.59
2023-04-24T06:32:08.544Z,996.57
2023-04-24T06:33:19.584Z,996.64
2023-04-24T06:34:08.542Z,996.59
2023-04-24T06:35:08.491Z,996.70
2023-04-24T06:36:08.487Z,996.69
2023-04-24T06:37:08.479Z,996.67
2023-04-24T06:38:08.472Z,996.66
2023-04-24T06:39:08.478Z,996.57
2023-04-24T06:40:08.886Z,996.62
2023-04-24T06:41:08.458Z,996.62
2023-04-24T06:42:08.452Z,996.57
2023-04-24T06:43:08.442Z,996.62
2023-04-24T06:44:08.431Z,996.59
2023-04-24T06:45:08.430Z,996.56
2023-04-24T06:46:08.454Z,996.58
2023-04-24T06:47:08.424Z,996.61
2023-04-24T06:48:08.498Z,996.60
2023-04-24T06:49:08.406Z,996.61
2023-04-24T06:50:08.391Z,996.65
2023-04-24T06:51:08.388Z,996.62
2023-04-24T06:52:08.380Z,996.60
2023-04-24T06:53:08.367Z,996.62
2023-04-24T06:54:08.374Z,996.63
2023-04-24T06:55:08.353Z,996.57
2023-04-24T06:56:08.351Z,996.62
2023-04-24T06:57:08.367Z,996.66
2023-04-24T06:58:08.349Z,996.67
2023-04-24T06:59:08.365Z,996.70
2023-04-24T07:00:08.333Z,996.70
2023-04-24T07:01:08.482Z,996.75
2023-04-24T07:02:08.385Z,996.75
2023-04-24T07:03:08.501Z,996.75
2023-04-24T07:04:08.395Z,996.74
2023-04-24T07:05:08.300Z,996.80
2023-04-24T07:06:08.298Z,996.84
2023-04-24T07:07:08.302Z,996.79
2023-04-24T07:08:08.269Z,996.82
2023-04-24T07:09:08.338Z,996.79
2023-04-24T07:10:08.277Z,996.88
2023-04-24T07:11:08.258Z,996.91
2023-04-24T07:12:08.242Z,996.90
2023-04-24T07:13:08.236Z,996.86
2023-04-24T07:14:08.230Z,996.95
2023-04-24T07:15:08.227Z,996.89
2023-04-24T07:16:08.322Z,996.87
2023-04-24T07:17:08.196Z,996.82
2023-04-24T07:18:08.226Z,996.90
2023-04-24T07:19:08.200Z,996.88
2023-04-24T07:20:08.185Z,996.88
2023-04-24T07:21:08.213Z,996.89
2023-04-24T07:22:08.179Z,996.89
2023-04-24T07:23:08.170Z,996.88
2023-04-24T07:24:08.163Z,996.86
2023-04-24T07:25:08.169Z,996.90
2023-04-24T07:26:08.150Z,996.92
2023-04-24T07:27:08.147Z,996.91
2023-04-24T07:28:08.136Z,996.95
2023-04-24T07:29:08.125Z,996.93
2023-04-24T07:30:08.118Z,996.93
2023-04-24T07:31:08.120Z,996.95
2023-04-24T07:32:08.134Z,996.96
2023-04-24T07:33:08.163Z,996.95
2023-04-24T07:34:08.089Z,996.96
2023-04-24T07:35:08.089Z,997.03
2023-04-24T07:36:08.083Z,996.99
2023-04-24T07:37:08.148Z,997.04
2023-04-24T07:38:08.070Z,997.04
2023-04-24T07:39:08.050Z,997.05
2023-04-24T07:40:08.055Z,997.02
2023-04-24T07:41:08.041Z,997.10
2023-04-24T07:42:08.046Z,997.07
2023-04-24T07:43:08.026Z,997.06
2023-04-24T07:44:08.029Z,997.05
2023-04-24T07:45:08.012Z,997.08
2023-04-24T07:47:08.028Z,997.08
2023-04-24T07:48:08.032Z,997.13
2023-04-24T07:49:13.532Z,997.16
2023-04-24T07:50:08.010Z,997.20
2023-04-24T07:51:07.978Z,997.17
2023-04-24T07:52:07.970Z,997.20
2023-04-24T07:53:07.958Z,997.19
2023-04-24T07:54:07.977Z,997.28
2023-04-24T07:55:08.002Z,997.29
2023-04-24T07:56:07.946Z,997.29
2023-04-24T07:57:07.935Z,997.30
2023-04-24T07:58:07.939Z,997.35
2023-04-24T07:59:07.919Z,997.35
2023-04-24T08:00:07.911Z,997.33
2023-04-24T08:01:07.907Z,997.42
2023-04-24T08:02:07.972Z,997.51
2023-04-24T08:03:08.147Z,997.50
2023-04-24T08:04:08.087Z,997.44
2023-04-24T08:05:08.101Z,997.53
2023-04-24T08:06:07.974Z,997.53
2023-04-24T08:07:07.869Z,997.56
2023-04-24T08:08:07.859Z,997.56
2023-04-24T08:09:07.850Z,997.63
2023-04-24T08:10:07.844Z,997.64
2023-04-24T08:11:07.841Z,997.67
2023-04-24T08:12:07.839Z,997.68
2023-04-24T08:13:07.821Z,997.66
2023-04-24T08:14:07.821Z,997.71
2023-04-24T08:15:07.810Z,997.75
2023-04-24T08:16:07.841Z,997.71
2023-04-24T08:17:07.801Z,997.84
2023-04-24T08:18:07.809Z,997.90
2023-04-24T08:19:28.784Z,997.84
2023-04-24T08:20:07.776Z,997.85
2023-04-24T08:21:07.767Z,997.89
2023-04-24T08:22:07.761Z,997.94
2023-04-24T08:23:07.760Z,998.00
2023-04-24T08:24:07.746Z,997.93
2023-04-24T08:25:07.742Z,997.93
2023-04-24T08:26:07.735Z,998.06
2023-04-24T08:27:07.730Z,997.93
2023-04-24T08:28:07.718Z,997.98
2023-04-24T08:29:07.724Z,998.08
2023-04-24T08:30:07.709Z,998.08
2023-04-24T08:31:07.797Z,998.05
2023-04-24T08:32:07.998Z,998.10
2023-04-24T08:33:07.713Z,998.14
2023-04-24T08:34:07.677Z,998.16
2023-04-24T08:35:07.675Z,998.19
2023-04-24T08:36:07.668Z,998.23
2023-04-24T08:37:07.704Z,998.29
2023-04-24T08:38:07.656Z,998.23
2023-04-24T08:39:07.644Z,998.23
2023-04-24T08:40:07.658Z,998.29
2023-04-24T08:41:07.629Z,998.44
2023-04-24T08:42:07.625Z,998.41
2023-04-24T08:43:07.614Z,998.45
2023-04-24T08:44:09.006Z,998.52
2023-04-24T08:45:07.604Z,998.65
2023-04-24T08:46:11.634Z,998.63
2023-04-24T08:47:07.586Z,998.68
2023-04-24T08:48:11.437Z,998.81
2023-04-24T08:49:07.590Z,998.76
2023-04-24T08:50:07.568Z,998.67
2023-04-24T08:51:07.578Z,998.76
2023-04-24T08:52:07.553Z,998.72
2023-04-24T08:53:07.546Z,998.80
2023-04-24T08:54:07.538Z,998.71
2023-04-24T08:55:07.521Z,998.80
2023-04-24T08:56:07.526Z,998.80
2023-04-24T08:57:07.522Z,998.78
2023-04-24T08:58:07.511Z,998.85
2023-04-24T08:59:07.495Z,998.90
2023-04-24T09:00:08.259Z,998.82
2023-04-24T09:01:07.496Z,998.88
2023-04-24T09:02:07.560Z,998.82
2023-04-24T09:03:07.591Z,998.86
2023-04-24T09:04:07.660Z,998.82
2023-04-24T09:05:07.455Z,998.85
2023-04-24T09:06:07.450Z,998.88
2023-04-24T09:07:07.445Z,998.91
2023-04-24T09:08:07.435Z,998.92
2023-04-24T09:09:07.440Z,998.87
2023-04-24T09:10:07.439Z,998.90
2023-04-24T09:11:07.402Z,998.93
2023-04-24T09:12:07.407Z,998.95
2023-04-24T09:13:07.408Z,998.95
2023-04-24T09:14:07.394Z,998.99
2023-04-24T09:15:07.380Z,998.98
2023-04-24T09:16:07.408Z,999.01
2023-04-24T09:17:07.506Z,999.04
2023-04-24T09:18:07.378Z,999.07
2023-04-24T09:19:07.346Z,999.06
2023-04-24T09:20:07.343Z,999.04
2023-04-24T09:21:07.339Z,999.05
2023-04-24T09:22:07.331Z,999.08
2023-04-24T09:23:07.313Z,999.07
2023-04-24T09:24:07.324Z,999.12
2023-04-24T09:25:07.302Z,999.11
2023-04-24T09:26:07.297Z,999.13
2023-04-24T09:27:08.142Z,999.14
2023-04-24T09:28:07.301Z,999.16
2023-04-24T09:29:07.271Z,999.13
2023-04-24T09:30:07.266Z,999.11
2023-04-24T09:31:07.251Z,999.15
2023-04-24T09:32:07.368Z,999.21
2023-04-24T09:33:07.257Z,999.19
2023-04-24T09:34:08.085Z,999.20
2023-04-24T09:35:07.232Z,999.19
2023-04-24T09:36:07.226Z,999.21
2023-04-24T09:37:07.222Z,999.25
2023-04-24T09:38:07.213Z,999.27
2023-04-24T09:39:07.197Z,999.28
2023-04-24T09:40:07.202Z,999.30
2023-04-24T09:41:07.193Z,999.34
2023-04-24T09:42:07.182Z,999.38
2023-04-24T09:43:07.169Z,999.39
2023-04-24T09:44:07.167Z,999.41
2023-04-24T09:45:14.613Z,999.42
2023-04-24T09:46:07.171Z,999.48
2023-04-24T09:47:07.139Z,999.46
2023-04-24T09:48:07.169Z,999.45
2023-04-24T09:49:07.124Z,999.49
2023-04-24T09:50:07.124Z,999.47
2023-04-24T09:51:07.170Z,999.48
2023-04-24T09:52:07.113Z,999.55
2023-04-24T09:53:07.096Z,999.58
2023-04-24T09:54:07.088Z,999.56
2023-04-24T09:55:07.078Z,999.61
2023-04-24T09:56:07.092Z,999.54
2023-04-24T09:57:07.071Z,999.55
2023-04-24T09:58:07.057Z,999.58
2023-04-24T09:59:07.066Z,999.63
2023-04-24T10:00:07.047Z,999.58
2023-04-24T10:01:07.112Z,999.68
2023-04-24T10:02:07.033Z,999.67
2023-04-24T10:03:07.127Z,999.68
2023-04-24T10:04:07.053Z,999.69
2023-04-24T10:05:07.073Z,999.65
2023-04-24T10:06:07.014Z,999.74
2023-04-24T10:07:06.996Z,999.71
2023-04-24T10:08:06.986Z,999.75
2023-04-24T10:09:06.967Z,999.79
2023-04-24T10:10:06.966Z,999.78
2023-04-24T10:11:06.958Z,999.79
2023-04-24T10:12:06.952Z,999.74
2023-04-24T10:13:06.946Z,999.78
2023-04-24T10:14:06.938Z,999.81
2023-04-24T10:15:06.930Z,999.81
2023-04-24T10:16:06.954Z,999.82
2023-04-24T10:17:06.913Z,999.89
2023-04-24T10:18:06.957Z,999.87
2023-04-24T10:19:06.906Z,999.87
2023-04-24T10:20:06.893Z,999.94
2023-04-24T10:21:06.891Z,999.94
2023-04-24T10:22:08.855Z,999.97
2023-04-24T10:23:06.869Z,999.99
2023-04-24T10:24:06.867Z,999.99
2023-04-24T10:25:06.862Z,1000.04
2023-04-24T10:26:06.858Z,1000.04
2023-04-24T10:27:06.854Z,1000.07
2023-04-24T10:28:08.394Z,1000.07
2023-04-24T10:29:06.829Z,1000.09
2023-04-24T10:30:06.826Z,1000.09
2023-04-24T10:31:06.852Z,1000.03
2023-04-24T10:32:06.805Z,1000.03
2023-04-24T10:33:06.860Z,1000.08
2023-04-24T10:34:06.817Z,1000.05
2023-04-24T10:35:06.783Z,1000.06
2023-04-24T10:36:06.769Z,1000.09
2023-04-24T10:37:06.779Z,1000.08
2023-04-24T10:38:06.771Z,1000.10
2023-04-24T10:39:06.758Z,1000.07
2023-04-24T10:40:06.760Z,1000.10
2023-04-24T10:41:06.742Z,1000.16
2023-04-24T10:42:06.737Z,1000.11
2023-04-24T10:43:06.732Z,1000.16
2023-04-24T10:44:06.722Z,1000.17
2023-04-24T10:45:06.737Z,1000.15
2023-04-24T10:46:06.970Z,1000.18
2023-04-24T10:47:06.718Z,1000.17
2023-04-24T10:48:06.726Z,1000.17
2023-04-24T10:49:06.689Z,1000.17
2023-04-24T10:50:06.677Z,1000.20
2023-04-24T10:51:06.664Z,1000.22
2023-04-24T10:52:06.887Z,1000.23
2023-04-24T10:53:06.662Z,1000.22
2023-04-24T10:54:06.661Z,1000.23
2023-04-24T10:55:06.651Z,1000.22
2023-04-24T10:56:06.643Z,1000.22
2023-04-24T10:57:06.625Z,1000.22
2023-04-24T10:58:06.635Z,1000.25
2023-04-24T10:59:06.622Z,1000.27
2023-04-24T11:00:07.209Z,1000.32
2023-04-24T11:01:06.655Z,1000.30
2023-04-24T11:02:06.589Z,1000.35
2023-04-24T11:03:06.715Z,1000.36
2023-04-24T11:04:06.628Z,1000.31
2023-04-24T11:05:06.566Z,1000.36
2023-04-24T11:06:06.571Z,1000.39
2023-04-24T11:07:06.563Z,1000.39
2023-04-24T11:08:07.384Z,1000.37
2023-04-24T11:09:06.541Z,1000.38
2023-04-24T11:10:06.531Z,1000.37
2023-04-24T11:11:06.543Z,1000.38
2023-04-24T11:12:06.517Z,1000.36
2023-04-24T11:13:06.512Z,1000.35
2023-04-24T11:14:06.505Z,1000.36
2023-04-24T11:15:06.510Z,1000.36
2023-04-24T11:16:06.563Z,1000.37
2023-04-24T11:17:06.687Z,1000.39
2023-04-24T11:18:06.515Z,1000.40
2023-04-24T11:19:06.467Z,1000.39
2023-04-24T11:20:18.975Z,1000.45
2023-04-24T11:21:06.474Z,1000.46
2023-04-24T11:22:06.444Z,1000.50
2023-04-24T11:23:06.438Z,1000.47
2023-04-24T11:24:06.427Z,1000.52
2023-04-24T11:25:06.426Z,1000.50
2023-04-24T11:26:06.420Z,1000.50
2023-04-24T11:27:06.418Z,1000.51
2023-04-24T11:28:06.424Z,1000.47
2023-04-24T11:29:06.413Z,1000.51
2023-04-24T11:30:06.391Z,1000.48
2023-04-24T11:31:06.388Z,1000.45
2023-04-24T11:32:06.443Z,1000.40
2023-04-24T11:33:06.484Z,1000.44
2023-04-24T11:34:06.368Z,1000.44
2023-04-24T11:35:06.361Z,1000.44
2023-04-24T11:36:06.359Z,1000.50
2023-04-24T11:37:06.340Z,1000.52
2023-04-24T11:39:06.331Z,1000.52
2023-04-24T11:40:06.351Z,1000.59
2023-04-24T11:41:06.332Z,1000.65
2023-04-24T11:42:06.313Z,1000.63
2023-04-24T11:43:07.669Z,1000.62
2023-04-24T11:44:06.302Z,1000.66
2023-04-24T11:45:06.298Z,1000.68
2023-04-24T11:46:07.406Z,1000.66
2023-04-24T11:47:06.282Z,1000.69
2023-04-24T11:48:06.315Z,1000.64
2023-04-24T11:49:06.274Z,1000.67
2023-04-24T11:50:06.269Z,1000.65
2023-04-24T11:51:06.264Z,1000.61
2023-04-24T11:52:06.267Z,1000.60
2023-04-24T11:53:06.261Z,1000.56
2023-04-24T11:54:06.241Z,1000.62
2023-04-24T11:55:06.230Z,1000.70
2023-04-24T11:56:06.226Z,1000.61
2023-04-24T11:57:06.220Z,1000.69
2023-04-24T11:58:06.220Z,1000.71
2023-04-24T11:59:06.206Z,1000.70
2023-04-24T12:00:07.048Z,1000.71
2023-04-24T12:01:06.196Z,1000.65
2023-04-24T12:02:06.272Z,1000.68
2023-04-24T12:03:06.293Z,1000.67
2023-04-24T12:04:06.445Z,1000.70
2023-04-24T12:05:06.356Z,1000.72
2023-04-24T12:06:06.227Z,1000.72
2023-04-24T12:07:06.248Z,1000.71
2023-04-24T12:08:06.295Z,1000.77
2023-04-24T12:09:17.483Z,1000.76
2023-04-24T12:10:06.153Z,1000.76
2023-04-24T12:11:06.129Z,1000.84
2023-04-24T12:12:06.126Z,1000.80
2023-04-24T12:13:06.117Z,1000.80
2023-04-24T12:14:06.129Z,1000.85
2023-04-24T12:15:06.102Z,1000.86
2023-04-24T12:16:06.170Z,1000.85
2023-04-24T12:17:06.093Z,1000.89
2023-04-24T12:18:06.125Z,1000.87
2023-04-24T12:19:06.084Z,1000.92
2023-04-24T12:20:06.079Z,1000.94
2023-04-24T12:21:06.078Z,1000.94
2023-04-24T12:22:06.063Z,1000.90
2023-04-24T12:23:06.066Z,1000.90
2023-04-24T12:24:06.060Z,1000.95
2023-04-24T12:25:06.047Z,1000.91
2023-04-24T12:26:06.056Z,1000.93